sensor_id;sensor_type;location;lat;lon;timestamp;pressure;altitude;pressure_sealevel;temperature;humidity
46379;BME280;32084;42.254;22.744;2023-04-06T00:01:57;94962.75;;;4.00;59.77
46379;BME280;32084;42.254;22.744;2023-04-06T00:04:23;94958.50;;;4.09;59.50
46379;BME280;32084;42.254;22.744;2023-04-06T00:06:49;94958.50;;;4.09;59.24
46379;BME280;32084;42.254;22.744;2023-04-06T00:09:15;94960.84;;;4.02;59.32
46379;BME280;32084;42.254;22.744;2023-04-06T00:11:41;94955.09;;;3.97;59.80
46379;BME280;32084;42.254;22.744;2023-04-06T00:14:07;94947.06;;;3.87;59.97
46379;BME280;32084;42.254;22.744;2023-04-06T00:16:34;94953.19;;;3.88;60.06
46379;BME280;32084;42.254;22.744;2023-04-06T00:19:00;94948.72;;;3.88;60.00
46379;BME280;32084;42.254;22.744;2023-04-06T00:21:26;94948.09;;;3.96;59.01
46379;BME280;32084;42.254;22.744;2023-04-06T00:23:52;94944.56;;;4.07;59.10
46379;BME280;32084;42.254;22.744;2023-04-06T00:26:18;94938.19;;;4.09;58.54
46379;BME280;32084;42.254;22.744;2023-04-06T00:28:44;94934.38;;;4.02;58.68
46379;BME280;32084;42.254;22.744;2023-04-06T00:31:11;94936.41;;;3.78;60.16
46379;BME280;32084;42.254;22.744;2023-04-06T00:33:37;94928.22;;;3.69;60.66
46379;BME280;32084;42.254;22.744;2023-04-06T00:36:03;94935.09;;;3.72;61.01
46379;BME280;32084;42.254;22.744;2023-04-06T00:38:29;94935.69;;;3.76;60.63
46379;BME280;32084;42.254;22.744;2023-04-06T00:40:55;94935.41;;;3.79;60.71
46379;BME280;32084;42.254;22.744;2023-04-06T00:43:21;94925.44;;;3.82;59.10
46379;BME280;32084;42.254;22.744;2023-04-06T00:45:47;94934.66;;;3.88;59.88
46379;BME280;32084;42.254;22.744;2023-04-06T00:48:13;94930.28;;;3.98;59.47
46379;BME280;32084;42.254;22.744;2023-04-06T00:50:39;94926.09;;;3.96;59.10
46379;BME280;32084;42.254;22.744;2023-04-06T00:53:05;94926.34;;;3.92;60.02
46379;BME280;32084;42.254;22.744;2023-04-06T00:55:31;94925.09;;;3.76;60.85
46379;BME280;32084;42.254;22.744;2023-04-06T00:57:58;94918.41;;;3.60;60.93
46379;BME280;32084;42.254;22.744;2023-04-06T01:00:24;94925.13;;;3.64;62.03
46379;BME280;32084;42.254;22.744;2023-04-06T01:02:51;94922.50;;;3.64;61.38
46379;BME280;32084;42.254;22.744;2023-04-06T01:05:18;94918.75;;;3.67;62.49
46379;BME280;32084;42.254;22.744;2023-04-06T01:07:44;94913.44;;;3.78;61.90
46379;BME280;32084;42.254;22.744;2023-04-06T01:10:10;94918.13;;;3.75;62.37
46379;BME280;32084;42.254;22.744;2023-04-06T01:12:36;94907.03;;;3.81;61.85
46379;BME280;32084;42.254;22.744;2023-04-06T01:15:04;94905.94;;;3.95;62.29
46379;BME280;32084;42.254;22.744;2023-04-06T01:17:32;94913.50;;;3.88;62.07
46379;BME280;32084;42.254;22.744;2023-04-06T01:19:58;94908.72;;;3.82;62.99
46379;BME280;32084;42.254;22.744;2023-04-06T01:22:24;94907.44;;;3.76;62.74
46379;BME280;32084;42.254;22.744;2023-04-06T01:24:50;94915.00;;;3.69;63.03
46379;BME280;32084;42.254;22.744;2023-04-06T01:27:16;94902.75;;;3.68;63.34
46379;BME280;32084;42.254;22.744;2023-04-06T01:29:42;94905.84;;;3.74;63.23
46379;BME280;32084;42.254;22.744;2023-04-06T01:32:08;94902.28;;;3.63;63.84
46379;BME280;32084;42.254;22.744;2023-04-06T01:34:35;94901.72;;;3.48;66.19
46379;BME280;32084;42.254;22.744;2023-04-06T01:37:01;94905.09;;;3.39;70.92
46379;BME280;32084;42.254;22.744;2023-04-06T01:39:27;94906.31;;;3.35;71.17
46379;BME280;32084;42.254;22.744;2023-04-06T01:41:53;94899.25;;;3.24;72.75
46379;BME280;32084;42.254;22.744;2023-04-06T01:44:19;94894.72;;;3.26;73.59
46379;BME280;32084;42.254;22.744;2023-04-06T01:46:45;94895.28;;;3.19;73.91
46379;BME280;32084;42.254;22.744;2023-04-06T01:49:12;94890.00;;;3.30;73.27
46379;BME280;32084;42.254;22.744;2023-04-06T01:51:38;94896.03;;;3.32;73.62
46379;BME280;32084;42.254;22.744;2023-04-06T01:54:04;94888.69;;;3.24;74.55
46379;BME280;32084;42.254;22.744;2023-04-06T01:56:30;94893.75;;;3.16;75.25
46379;BME280;32084;42.254;22.744;2023-04-06T01:58:56;94890.50;;;3.12;76.08
46379;BME280;32084;42.254;22.744;2023-04-06T02:01:22;94887.03;;;3.12;75.80
46379;BME280;32084;42.254;22.744;2023-04-06T02:03:48;94876.34;;;3.13;75.67
46379;BME280;32084;42.254;22.744;2023-04-06T02:06:15;94884.50;;;3.22;74.55
46379;BME280;32084;42.254;22.744;2023-04-06T02:08:41;94886.78;;;3.15;75.56
46379;BME280;32084;42.254;22.744;2023-04-06T02:11:07;94885.00;;;3.16;75.32
46379;BME280;32084;42.254;22.744;2023-04-06T02:13:33;94883.66;;;3.10;75.83
46379;BME280;32084;42.254;22.744;2023-04-06T02:15:59;94883.06;;;3.18;75.25
46379;BME280;32084;42.254;22.744;2023-04-06T02:18:25;94882.81;;;3.32;74.59
46379;BME280;32084;42.254;22.744;2023-04-06T02:20:51;94880.72;;;3.36;74.82
46379;BME280;32084;42.254;22.744;2023-04-06T02:23:17;94879.22;;;3.22;74.67
46379;BME280;32084;42.254;22.744;2023-04-06T02:25:43;94873.41;;;3.28;74.43
46379;BME280;32084;42.254;22.744;2023-04-06T02:28:09;94874.28;;;3.28;74.59
46379;BME280;32084;42.254;22.744;2023-04-06T02:30:36;94880.03;;;3.22;74.24
46379;BME280;32084;42.254;22.744;2023-04-06T02:33:02;94883.91;;;3.07;74.53
46379;BME280;32084;42.254;22.744;2023-04-06T02:35:28;94882.34;;;3.04;74.36
46379;BME280;32084;42.254;22.744;2023-04-06T02:37:55;94887.25;;;3.09;73.46
46379;BME280;32084;42.254;22.744;2023-04-06T02:40:21;94883.19;;;3.16;73.83
46379;BME280;32084;42.254;22.744;2023-04-06T02:42:47;94889.88;;;3.20;73.24
46379;BME280;32084;42.254;22.744;2023-04-06T02:45:13;94884.16;;;3.15;72.73
46379;BME280;32084;42.254;22.744;2023-04-06T02:47:39;94885.31;;;3.22;72.67
46379;BME280;32084;42.254;22.744;2023-04-06T02:50:05;94891.09;;;3.16;73.19
46379;BME280;32084;42.254;22.744;2023-04-06T02:52:31;94885.50;;;2.98;72.66
46379;BME280;32084;42.254;22.744;2023-04-06T02:54:58;94893.53;;;2.97;73.84
46379;BME280;32084;42.254;22.744;2023-04-06T02:57:24;94893.03;;;3.03;73.58
46379;BME280;32084;42.254;22.744;2023-04-06T02:59:50;94887.53;;;3.06;72.90
46379;BME280;32084;42.254;22.744;2023-04-06T03:02:16;94886.31;;;3.10;74.06
46379;BME280;32084;42.254;22.744;2023-04-06T03:04:42;94895.06;;;2.99;74.68
46379;BME280;32084;42.254;22.744;2023-04-06T03:07:08;94896.88;;;3.10;73.83
46379;BME280;32084;42.254;22.744;2023-04-06T03:09:36;94891.00;;;3.06;73.95
46379;BME280;32084;42.254;22.744;2023-04-06T03:12:02;94891.81;;;3.07;74.11
46379;BME280;32084;42.254;22.744;2023-04-06T03:14:28;94891.59;;;2.99;74.52
46379;BME280;32084;42.254;22.744;2023-04-06T03:16:54;94892.31;;;3.01;74.42
46379;BME280;32084;42.254;22.744;2023-04-06T03:19:20;94884.78;;;2.85;75.41
46379;BME280;32084;42.254;22.744;2023-04-06T03:21:46;94879.63;;;2.83;74.81
46379;BME280;32084;42.254;22.744;2023-04-06T03:24:13;94886.44;;;2.86;76.21
46379;BME280;32084;42.254;22.744;2023-04-06T03:26:39;94889.47;;;2.81;75.75
46379;BME280;32084;42.254;22.744;2023-04-06T03:29:05;94886.44;;;2.74;74.72
46379;BME280;32084;42.254;22.744;2023-04-06T03:31:31;94889.69;;;2.89;75.44
46379;BME280;32084;42.254;22.744;2023-04-06T03:33:57;94887.03;;;3.01;74.77
46379;BME280;32084;42.254;22.744;2023-04-06T03:36:25;94887.88;;;3.01;74.33
46379;BME280;32084;42.254;22.744;2023-04-06T03:38:51;94877.31;;;3.01;72.69
46379;BME280;32084;42.254;22.744;2023-04-06T03:41:19;94883.78;;;3.08;73.55
46379;BME280;32084;42.254;22.744;2023-04-06T03:43:45;94879.59;;;3.06;72.58
46379;BME280;32084;42.254;22.744;2023-04-06T03:46:11;94883.56;;;3.11;72.29
46379;BME280;32084;42.254;22.744;2023-04-06T03:48:37;94887.75;;;3.03;71.00
46379;BME280;32084;42.254;22.744;2023-04-06T03:51:03;94889.19;;;3.07;72.34
46379;BME280;32084;42.254;22.744;2023-04-06T03:53:30;94885.22;;;3.12;72.36
46379;BME280;32084;42.254;22.744;2023-04-06T03:55:56;94885.09;;;3.14;71.67
46379;BME280;32084;42.254;22.744;2023-04-06T03:58:22;94878.88;;;3.15;72.74
46379;BME280;32084;42.254;22.744;2023-04-06T04:00:48;94883.66;;;3.10;71.86
46379;BME280;32084;42.254;22.744;2023-04-06T04:03:14;94884.63;;;3.09;73.11
46379;BME280;32084;42.254;22.744;2023-04-06T04:05:40;94889.28;;;3.17;73.63
46379;BME280;32084;42.254;22.744;2023-04-06T04:08:06;94883.88;;;3.29;73.17
46379;BME280;32084;42.254;22.744;2023-04-06T04:10:32;94885.06;;;3.37;72.46
46379;BME280;32084;42.254;22.744;2023-04-06T04:12:58;94884.47;;;3.33;73.15
46379;BME280;32084;42.254;22.744;2023-04-06T04:15:24;94876.31;;;3.25;72.72
46379;BME280;32084;42.254;22.744;2023-04-06T04:17:50;94880.50;;;3.27;72.99
46379;BME280;32084;42.254;22.744;2023-04-06T04:20:16;94876.94;;;3.28;72.37
46379;BME280;32084;42.254;22.744;2023-04-06T04:22:42;94876.03;;;3.39;72.50
46379;BME280;32084;42.254;22.744;2023-04-06T04:25:09;94877.97;;;3.37;72.03
46379;BME280;32084;42.254;22.744;2023-04-06T04:27:35;94881.09;;;3.42;71.34
46379;BME280;32084;42.254;22.744;2023-04-06T04:30:01;94877.13;;;3.37;70.80
46379;BME280;32084;42.254;22.744;2023-04-06T04:32:27;94877.19;;;3.14;71.40
46379;BME280;32084;42.254;22.744;2023-04-06T04:34:53;94891.00;;;3.06;71.73
46379;BME280;32084;42.254;22.744;2023-04-06T04:37:20;94881.38;;;3.05;71.57
46379;BME280;32084;42.254;22.744;2023-04-06T04:39:46;94880.06;;;3.11;71.60
46379;BME280;32084;42.254;22.744;2023-04-06T04:42:12;94878.41;;;2.99;72.70
46379;BME280;32084;42.254;22.744;2023-04-06T04:44:38;94880.56;;;2.93;72.94
46379;BME280;32084;42.254;22.744;2023-04-06T04:47:04;94884.06;;;2.83;74.20
46379;BME280;32084;42.254;22.744;2023-04-06T04:49:30;94887.88;;;2.45;74.39
46379;BME280;32084;42.254;22.744;2023-04-06T04:51:56;94888.69;;;2.23;74.92
46379;BME280;32084;42.254;22.744;2023-04-06T04:54:22;94891.06;;;2.14;75.10
46379;BME280;32084;42.254;22.744;2023-04-06T04:56:48;94884.09;;;2.13;74.97
46379;BME280;32084;42.254;22.744;2023-04-06T04:59:15;94886.41;;;2.29;75.23
46379;BME280;32084;42.254;22.744;2023-04-06T05:01:42;94888.13;;;2.98;72.49
46379;BME280;32084;42.254;22.744;2023-04-06T05:04:08;94886.00;;;3.36;71.25
46379;BME280;32084;42.254;22.744;2023-04-06T05:06:34;94889.13;;;3.41;69.89
46379;BME280;32084;42.254;22.744;2023-04-06T05:09:00;94884.22;;;3.47;69.02
46379;BME280;32084;42.254;22.744;2023-04-06T05:11:26;94889.47;;;3.59;69.13
46379;BME280;32084;42.254;22.744;2023-04-06T05:13:52;94886.63;;;3.71;68.66
46379;BME280;32084;42.254;22.744;2023-04-06T05:16:19;94884.25;;;4.01;67.67
46379;BME280;32084;42.254;22.744;2023-04-06T05:18:45;94887.84;;;4.21;65.13
46379;BME280;32084;42.254;22.744;2023-04-06T05:21:11;94888.97;;;4.39;66.64
46379;BME280;32084;42.254;22.744;2023-04-06T05:23:37;94884.22;;;4.64;64.73
46379;BME280;32084;42.254;22.744;2023-04-06T05:26:03;94889.94;;;4.90;60.83
46379;BME280;32084;42.254;22.744;2023-04-06T05:28:30;94887.75;;;5.05;60.66
46379;BME280;32084;42.254;22.744;2023-04-06T05:30:56;94889.63;;;5.24;57.59
46379;BME280;32084;42.254;22.744;2023-04-06T05:33:23;94892.03;;;5.37;56.59
46379;BME280;32084;42.254;22.744;2023-04-06T05:35:49;94888.72;;;5.44;56.50
46379;BME280;32084;42.254;22.744;2023-04-06T05:38:16;94881.47;;;5.56;56.60
46379;BME280;32084;42.254;22.744;2023-04-06T05:40:42;94881.75;;;5.63;56.70
46379;BME280;32084;42.254;22.744;2023-04-06T05:43:08;94886.84;;;5.95;53.94
46379;BME280;32084;42.254;22.744;2023-04-06T05:45:34;94882.38;;;6.05;54.58
46379;BME280;32084;42.254;22.744;2023-04-06T05:48:01;94878.34;;;6.11;54.00
46379;BME280;32084;42.254;22.744;2023-04-06T05:50:28;94885.16;;;6.33;54.45
46379;BME280;32084;42.254;22.744;2023-04-06T05:52:54;94880.38;;;6.37;52.71
46379;BME280;32084;42.254;22.744;2023-04-06T05:55:20;94885.00;;;6.35;52.50
46379;BME280;32084;42.254;22.744;2023-04-06T05:57:46;94888.34;;;6.47;51.51
46379;BME280;32084;42.254;22.744;2023-04-06T06:00:12;94883.91;;;6.84;50.41
46379;BME280;32084;42.254;22.744;2023-04-06T06:02:39;94878.69;;;7.30;49.72
46379;BME280;32084;42.254;22.744;2023-04-06T06:05:05;94895.94;;;7.26;47.06
46379;BME280;32084;42.254;22.744;2023-04-06T06:07:31;94884.41;;;7.35;49.03
46379;BME280;32084;42.254;22.744;2023-04-06T06:09:57;94879.63;;;7.39;49.48
46379;BME280;32084;42.254;22.744;2023-04-06T06:12:24;94872.75;;;7.46;49.93
46379;BME280;32084;42.254;22.744;2023-04-06T06:14:50;94878.88;;;7.29;49.81
46379;BME280;32084;42.254;22.744;2023-04-06T06:17:16;94868.59;;;7.61;49.41
46379;BME280;32084;42.254;22.744;2023-04-06T06:19:42;94878.72;;;8.30;49.31
46379;BME280;32084;42.254;22.744;2023-04-06T06:22:08;94886.34;;;8.07;47.10
46379;BME280;32084;42.254;22.744;2023-04-06T06:24:34;94883.38;;;8.10;48.57
46379;BME280;32084;42.254;22.744;2023-04-06T06:27:00;94876.44;;;8.17;48.90
46379;BME280;32084;42.254;22.744;2023-04-06T06:29:26;94883.81;;;8.41;48.54
46379;BME280;32084;42.254;22.744;2023-04-06T06:31:52;94888.84;;;8.62;46.74
46379;BME280;32084;42.254;22.744;2023-04-06T06:34:18;94882.72;;;8.96;47.49
46379;BME280;32084;42.254;22.744;2023-04-06T06:36:44;94897.50;;;10.02;44.52
46379;BME280;32084;42.254;22.744;2023-04-06T06:39:10;94897.28;;;9.87;44.06
46379;BME280;32084;42.254;22.744;2023-04-06T06:41:36;94892.56;;;9.81;44.13
46379;BME280;32084;42.254;22.744;2023-04-06T06:44:02;94887.44;;;9.79;44.02
46379;BME280;32084;42.254;22.744;2023-04-06T06:46:28;94896.34;;;9.53;44.15
46379;BME280;32084;42.254;22.744;2023-04-06T06:48:54;94898.88;;;9.63;43.12
46379;BME280;32084;42.254;22.744;2023-04-06T06:51:21;94896.25;;;9.80;44.71
46379;BME280;32084;42.254;22.744;2023-04-06T06:53:47;94897.06;;;10.31;43.93
46379;BME280;32084;42.254;22.744;2023-04-06T06:56:13;94899.06;;;10.62;41.03
46379;BME280;32084;42.254;22.744;2023-04-06T06:58:39;94903.75;;;10.76;41.42
46379;BME280;32084;42.254;22.744;2023-04-06T07:01:05;94901.53;;;10.96;42.36
46379;BME280;32084;42.254;22.744;2023-04-06T07:03:32;94912.59;;;10.77;40.02
46379;BME280;32084;42.254;22.744;2023-04-06T07:05:58;94898.41;;;10.76;43.19
46379;BME280;32084;42.254;22.744;2023-04-06T07:08:24;94901.06;;;11.57;41.14
46379;BME280;32084;42.254;22.744;2023-04-06T07:10:51;94903.22;;;12.01;39.96
46379;BME280;32084;42.254;22.744;2023-04-06T07:13:18;94904.59;;;11.49;40.76
46379;BME280;32084;42.254;22.744;2023-04-06T07:15:48;94911.59;;;10.94;39.93
46379;BME280;32084;42.254;22.744;2023-04-06T07:18:15;94896.09;;;11.37;41.40
46379;BME280;32084;42.254;22.744;2023-04-06T07:20:41;94901.25;;;10.74;42.46
46379;BME280;32084;42.254;22.744;2023-04-06T07:23:07;94893.31;;;11.06;42.11
46379;BME280;32084;42.254;22.744;2023-04-06T07:25:33;94895.19;;;11.53;41.32
46379;BME280;32084;42.254;22.744;2023-04-06T07:28:00;94904.38;;;11.67;40.25
46379;BME280;32084;42.254;22.744;2023-04-06T07:30:26;94893.84;;;11.01;42.10
46379;BME280;32084;42.254;22.744;2023-04-06T07:32:53;94899.56;;;10.65;41.74
46379;BME280;32084;42.254;22.744;2023-04-06T07:35:21;94895.34;;;11.12;41.35
46379;BME280;32084;42.254;22.744;2023-04-06T07:37:48;94894.09;;;11.39;40.57
46379;BME280;32084;42.254;22.744;2023-04-06T07:40:14;94892.47;;;12.09;41.19
46379;BME280;32084;42.254;22.744;2023-04-06T07:42:40;94899.09;;;11.82;40.36
46379;BME280;32084;42.254;22.744;2023-04-06T07:45:06;94891.38;;;11.47;40.61
46379;BME280;32084;42.254;22.744;2023-04-06T07:47:33;94892.53;;;11.61;42.37
46379;BME280;32084;42.254;22.744;2023-04-06T07:49:59;94897.50;;;12.58;37.14
46379;BME280;32084;42.254;22.744;2023-04-06T07:52:25;94906.78;;;13.08;38.38
46379;BME280;32084;42.254;22.744;2023-04-06T07:54:51;94902.31;;;12.40;39.22
46379;BME280;32084;42.254;22.744;2023-04-06T07:57:18;94899.28;;;11.80;38.41
46379;BME280;32084;42.254;22.744;2023-04-06T07:59:44;94900.84;;;12.06;39.97
46379;BME280;32084;42.254;22.744;2023-04-06T08:02:10;94900.53;;;11.05;40.09
46379;BME280;32084;42.254;22.744;2023-04-06T08:04:36;94898.28;;;9.94;40.87
46379;BME280;32084;42.254;22.744;2023-04-06T08:07:02;94879.88;;;9.66;42.07
46379;BME280;32084;42.254;22.744;2023-04-06T08:09:28;94879.03;;;10.33;43.04
46379;BME280;32084;42.254;22.744;2023-04-06T08:11:54;94867.44;;;11.06;42.48
46379;BME280;32084;42.254;22.744;2023-04-06T08:14:20;94878.03;;;11.79;41.35
46379;BME280;32084;42.254;22.744;2023-04-06T08:16:47;94877.22;;;11.78;40.17
46379;BME280;32084;42.254;22.744;2023-04-06T08:19:13;94878.53;;;12.37;40.46
46379;BME280;32084;42.254;22.744;2023-04-06T08:21:39;94877.03;;;12.95;38.14
46379;BME280;32084;42.254;22.744;2023-04-06T08:24:05;94886.47;;;12.91;38.07
46379;BME280;32084;42.254;22.744;2023-04-06T08:26:32;94879.66;;;12.42;37.66
46379;BME280;32084;42.254;22.744;2023-04-06T08:28:58;94866.66;;;11.77;42.37
46379;BME280;32084;42.254;22.744;2023-04-06T08:31:24;94867.78;;;12.45;41.03
46379;BME280;32084;42.254;22.744;2023-04-06T08:33:50;94869.16;;;12.94;38.81
46379;BME280;32084;42.254;22.744;2023-04-06T08:36:16;94875.38;;;13.32;37.18
46379;BME280;32084;42.254;22.744;2023-04-06T08:38:45;94864.56;;;13.02;39.45
46379;BME280;32084;42.254;22.744;2023-04-06T08:41:12;94864.53;;;13.55;38.78
46379;BME280;32084;42.254;22.744;2023-04-06T08:46:11;94867.41;;;14.05;37.33
46379;BME280;32084;42.254;22.744;2023-04-06T08:48:38;94854.38;;;13.13;38.07
46379;BME280;32084;42.254;22.744;2023-04-06T08:51:04;94854.94;;;12.93;39.42
46379;BME280;32084;42.254;22.744;2023-04-06T08:53:30;94847.06;;;12.77;39.90
46379;BME280;32084;42.254;22.744;2023-04-06T08:55:57;94844.53;;;12.14;38.77
46379;BME280;32084;42.254;22.744;2023-04-06T08:58:23;94845.31;;;12.23;40.07
46379;BME280;32084;42.254;22.744;2023-04-06T09:00:50;94835.38;;;11.38;40.99
46379;BME280;32084;42.254;22.744;2023-04-06T09:03:17;94832.47;;;11.47;40.30
46379;BME280;32084;42.254;22.744;2023-04-06T09:05:44;94838.16;;;11.92;39.70
46379;BME280;32084;42.254;22.744;2023-04-06T09:08:11;94833.16;;;12.73;38.34
46379;BME280;32084;42.254;22.744;2023-04-06T09:10:40;94829.06;;;12.01;40.65
46379;BME280;32084;42.254;22.744;2023-04-06T09:13:06;94823.75;;;11.85;40.59
46379;BME280;32084;42.254;22.744;2023-04-06T09:15:32;94816.38;;;11.87;42.64
46379;BME280;32084;42.254;22.744;2023-04-06T09:17:59;94819.06;;;11.87;41.16
46379;BME280;32084;42.254;22.744;2023-04-06T09:20:25;94815.09;;;11.43;42.09
46379;BME280;32084;42.254;22.744;2023-04-06T09:22:54;94815.44;;;11.01;41.33
46379;BME280;32084;42.254;22.744;2023-04-06T09:25:21;94804.59;;;11.02;41.36
46379;BME280;32084;42.254;22.744;2023-04-06T09:27:49;94804.91;;;10.99;41.51
46379;BME280;32084;42.254;22.744;2023-04-06T09:30:23;94805.97;;;10.73;42.35
46379;BME280;32084;42.254;22.744;2023-04-06T09:32:51;94797.50;;;10.53;43.87
46379;BME280;32084;42.254;22.744;2023-04-06T09:35:18;94796.81;;;10.60;40.54
46379;BME280;32084;42.254;22.744;2023-04-06T09:37:46;94785.00;;;10.46;44.24
46379;BME280;32084;42.254;22.744;2023-04-06T09:40:12;94783.41;;;10.76;44.32
46379;BME280;32084;42.254;22.744;2023-04-06T09:42:42;94786.41;;;10.89;43.85
46379;BME280;32084;42.254;22.744;2023-04-06T09:45:08;94785.19;;;10.92;43.90
46379;BME280;32084;42.254;22.744;2023-04-06T09:47:35;94778.97;;;11.08;42.40
46379;BME280;32084;42.254;22.744;2023-04-06T09:50:02;94782.69;;;10.99;42.55
46379;BME280;32084;42.254;22.744;2023-04-06T09:55:47;94783.13;;;10.54;43.60
46379;BME280;32084;42.254;22.744;2023-04-06T09:58:13;94781.28;;;10.14;43.31
46379;BME280;32084;42.254;22.744;2023-04-06T10:00:43;94775.28;;;9.95;44.21
46379;BME280;32084;42.254;22.744;2023-04-06T10:03:21;94785.13;;;9.87;43.54
46379;BME280;32084;42.254;22.744;2023-04-06T10:05:55;94778.13;;;10.02;45.80
46379;BME280;32084;42.254;22.744;2023-04-06T10:08:24;94771.59;;;10.29;44.34
46379;BME280;32084;42.254;22.744;2023-04-06T10:10:51;94772.44;;;10.05;44.84
46379;BME280;32084;42.254;22.744;2023-04-06T10:13:17;94781.44;;;9.88;44.84
46379;BME280;32084;42.254;22.744;2023-04-06T10:15:44;94779.97;;;9.77;44.04
46379;BME280;32084;42.254;22.744;2023-04-06T10:18:10;94775.75;;;9.74;44.92
46379;BME280;32084;42.254;22.744;2023-04-06T10:23:10;94778.28;;;10.01;44.12
46379;BME280;32084;42.254;22.744;2023-04-06T10:25:54;94786.78;;;9.80;43.09
46379;BME280;32084;42.254;22.744;2023-04-06T10:28:20;94781.81;;;9.85;43.73
46379;BME280;32084;42.254;22.744;2023-04-06T10:30:46;94781.41;;;9.55;43.92
46379;BME280;32084;42.254;22.744;2023-04-06T10:33:13;94778.44;;;9.58;44.69
46379;BME280;32084;42.254;22.744;2023-04-06T10:35:40;94771.91;;;9.61;45.47
46379;BME280;32084;42.254;22.744;2023-04-06T10:38:06;94775.41;;;9.61;43.77
46379;BME280;32084;42.254;22.744;2023-04-06T10:40:37;94771.09;;;9.60;44.09
46379;BME280;32084;42.254;22.744;2023-04-06T10:43:07;94770.38;;;9.42;44.31
46379;BME280;32084;42.254;22.744;2023-04-06T10:45:34;94763.03;;;9.35;45.58
46379;BME280;32084;42.254;22.744;2023-04-06T10:48:01;94759.91;;;9.65;45.61
46379;BME280;32084;42.254;22.744;2023-04-06T10:50:38;94754.59;;;9.81;45.47
46379;BME280;32084;42.254;22.744;2023-04-06T10:53:05;94764.09;;;9.92;44.27
46379;BME280;32084;42.254;22.744;2023-04-06T10:55:32;94765.09;;;9.74;45.47
46379;BME280;32084;42.254;22.744;2023-04-06T10:57:58;94759.94;;;9.81;44.40
46379;BME280;32084;42.254;22.744;2023-04-06T11:00:24;94762.75;;;9.80;43.27
46379;BME280;32084;42.254;22.744;2023-04-06T11:02:50;94758.25;;;9.64;44.08
46379;BME280;32084;42.254;22.744;2023-04-06T11:05:16;94761.72;;;9.48;44.51
46379;BME280;32084;42.254;22.744;2023-04-06T11:07:43;94760.09;;;9.71;44.58
46379;BME280;32084;42.254;22.744;2023-04-06T11:10:09;94753.25;;;9.77;43.84
46379;BME280;32084;42.254;22.744;2023-04-06T11:12:36;94756.59;;;9.79;45.16
46379;BME280;32084;42.254;22.744;2023-04-06T11:15:02;94759.59;;;9.92;43.64
46379;BME280;32084;42.254;22.744;2023-04-06T11:17:33;94749.72;;;9.76;43.39
46379;BME280;32084;42.254;22.744;2023-04-06T11:19:59;94754.88;;;9.62;44.69
46379;BME280;32084;42.254;22.744;2023-04-06T11:22:26;94744.91;;;9.64;45.26
46379;BME280;32084;42.254;22.744;2023-04-06T11:24:52;94741.69;;;9.44;44.88
46379;BME280;32084;42.254;22.744;2023-04-06T11:27:19;94746.50;;;9.32;46.18
46379;BME280;32084;42.254;22.744;2023-04-06T11:29:46;94748.00;;;9.26;46.54
46379;BME280;32084;42.254;22.744;2023-04-06T11:32:19;94747.41;;;8.98;46.38
46379;BME280;32084;42.254;22.744;2023-04-06T11:34:45;94745.94;;;9.04;46.68
46379;BME280;32084;42.254;22.744;2023-04-06T11:37:12;94739.19;;;8.91;48.20
46379;BME280;32084;42.254;22.744;2023-04-06T11:42:20;94737.84;;;8.79;47.06
46379;BME280;32084;42.254;22.744;2023-04-06T11:44:46;94706.78;;;8.62;47.39
46379;BME280;32084;42.254;22.744;2023-04-06T11:47:14;94745.25;;;9.02;46.41
46379;BME280;32084;42.254;22.744;2023-04-06T11:49:41;94735.91;;;8.97;47.23
46379;BME280;32084;42.254;22.744;2023-04-06T11:52:23;94735.84;;;8.81;47.11
46379;BME280;32084;42.254;22.744;2023-04-06T11:54:51;94743.22;;;8.61;46.55
46379;BME280;32084;42.254;22.744;2023-04-06T11:57:17;94729.97;;;8.69;47.82
46379;BME280;32084;42.254;22.744;2023-04-06T11:59:44;94736.03;;;8.88;47.90
46379;BME280;32084;42.254;22.744;2023-04-06T12:02:10;94736.75;;;8.98;48.08
46379;BME280;32084;42.254;22.744;2023-04-06T12:04:36;94730.34;;;8.83;47.67
46379;BME280;32084;42.254;22.744;2023-04-06T12:07:03;94732.88;;;8.84;47.29
46379;BME280;32084;42.254;22.744;2023-04-06T12:09:30;94736.72;;;8.90;46.05
46379;BME280;32084;42.254;22.744;2023-04-06T12:11:58;94730.06;;;8.94;46.32
46379;BME280;32084;42.254;22.744;2023-04-06T12:14:24;94738.75;;;9.04;45.61
46379;BME280;32084;42.254;22.744;2023-04-06T12:16:50;94739.59;;;9.05;45.80
46379;BME280;32084;42.254;22.744;2023-04-06T12:19:16;94731.50;;;8.80;47.17
46379;BME280;32084;42.254;22.744;2023-04-06T12:21:42;94729.56;;;8.98;47.00
46379;BME280;32084;42.254;22.744;2023-04-06T12:24:08;94727.41;;;9.02;46.04
46379;BME280;32084;42.254;22.744;2023-04-06T12:26:34;94722.78;;;9.12;47.38
46379;BME280;32084;42.254;22.744;2023-04-06T12:29:03;94727.94;;;9.14;44.85
46379;BME280;32084;42.254;22.744;2023-04-06T12:31:35;94712.00;;;9.38;47.81
46379;BME280;32084;42.254;22.744;2023-04-06T12:34:02;94717.19;;;9.40;46.53
46379;BME280;32084;42.254;22.744;2023-04-06T12:36:28;94725.88;;;9.67;46.00
46379;BME280;32084;42.254;22.744;2023-04-06T12:38:55;94726.88;;;9.49;45.20
46379;BME280;32084;42.254;22.744;2023-04-06T12:41:21;94726.19;;;9.55;45.46
46379;BME280;32084;42.254;22.744;2023-04-06T12:43:48;94718.72;;;9.75;45.65
46379;BME280;32084;42.254;22.744;2023-04-06T12:46:15;94724.56;;;9.87;45.36
46379;BME280;32084;42.254;22.744;2023-04-06T12:48:41;94723.91;;;9.77;43.70
46379;BME280;32084;42.254;22.744;2023-04-06T12:51:07;94722.19;;;9.51;45.29
46379;BME280;32084;42.254;22.744;2023-04-06T12:53:34;94716.22;;;9.74;45.73
46379;BME280;32084;42.254;22.744;2023-04-06T12:56:00;94713.84;;;9.71;43.36
46379;BME280;32084;42.254;22.744;2023-04-06T12:58:27;94712.69;;;9.82;45.24
46379;BME280;32084;42.254;22.744;2023-04-06T13:00:54;94713.22;;;9.77;44.41
46379;BME280;32084;42.254;22.744;2023-04-06T13:03:21;94715.53;;;9.55;42.71
46379;BME280;32084;42.254;22.744;2023-04-06T13:05:49;94714.53;;;9.56;44.02